Time;durP1;ratioP1;P1;durP2;ratioP2;P2;SDS_P1;SDS_P2;PMS_P1;PMS_P2;Temp;Humidity;BMP_temperature;BMP_pressure;BME280_temperature;BME280_humidity;BME280_pressure;Samples;Min_cycle;Max_cycle;Signal;HPM_P1;HPM_P2
2023/09/23 00:01:05;;;;;;;3.00;2.70;;;12.10;99.90;;;;;;5015231;28;20277;-47
2023/09/23 00:03:33;;;;;;;3.17;2.87;;;12.10;99.90;;;;;;5015678;28;20154;-47
2023/09/23 00:06:00;;;;;;;4.13;3.17;;;12.10;99.90;;;;;;5015118;28;20178;-48
2023/09/23 00:08:27;;;;;;;4.50;3.20;;;12.10;99.90;;;;;;5014038;28;20604;-47
2023/09/23 00:10:53;;;;;;;4.87;3.03;;;12.10;99.90;;;;;;5015124;28;20186;-47
2023/09/23 00:13:21;;;;;;;3.80;2.83;;;12.10;99.90;;;;;;5015087;28;20209;-46
2023/09/23 00:15:52;;;;;;;5.80;3.27;;;12.20;99.90;;;;;;5015095;28;20166;-47
2023/09/23 00:18:18;;;;;;;4.47;3.30;;;12.20;99.90;;;;;;5013780;28;20617;-48
2023/09/23 00:20:48;;;;;;;5.60;3.00;;;12.10;99.90;;;;;;5014018;28;20673;-47
2023/09/23 00:23:15;;;;;;;7.27;3.20;;;12.20;99.90;;;;;;5015910;28;20194;-48
2023/09/23 00:25:44;;;;;;;3.27;2.60;;;12.20;99.90;;;;;;5017900;28;20181;-48
2023/09/23 00:28:11;;;;;;;3.60;2.70;;;12.20;99.90;;;;;;5016737;28;20174;-47
2023/09/23 00:30:38;;;;;;;5.27;3.03;;;12.20;99.90;;;;;;5014709;28;20225;-48
2023/09/23 00:33:05;;;;;;;5.60;2.80;;;12.20;99.90;;;;;;5014684;28;20272;-47
2023/09/23 00:35:34;;;;;;;3.70;3.10;;;12.20;99.90;;;;;;5013474;28;20277;-47
2023/09/23 00:38:00;;;;;;;4.53;2.83;;;12.10;99.90;;;;;;5014583;28;20183;-48
2023/09/23 00:40:32;;;;;;;4.13;3.00;;;12.20;99.90;;;;;;5014670;28;20671;-47
2023/09/23 00:43:07;;;;;;;3.23;2.30;;;12.10;99.90;;;;;;5014524;28;20201;-47
2023/09/23 00:45:34;;;;;;;3.17;2.77;;;12.10;99.90;;;;;;5014414;28;20157;-46
2023/09/23 00:48:00;;;;;;;3.80;2.83;;;12.00;99.90;;;;;;5014390;28;20178;-47
2023/09/23 00:50:29;;;;;;;3.80;2.83;;;12.00;99.90;;;;;;5014095;28;20690;-48
2023/09/23 00:52:56;;;;;;;5.87;2.90;;;11.90;99.90;;;;;;5013677;28;20174;-47
2023/09/23 00:55:26;;;;;;;4.37;2.83;;;11.80;99.90;;;;;;5013209;28;20174;-49
2023/09/23 00:57:55;;;;;;;4.60;2.50;;;11.80;99.90;;;;;;5014241;28;20717;-47
2023/09/23 01:00:30;;;;;;;3.30;3.00;;;11.80;99.90;;;;;;5014121;28;20275;-47
2023/09/23 01:02:58;;;;;;;4.60;2.73;;;11.70;99.90;;;;;;5012950;28;20197;-49
2023/09/23 01:05:28;;;;;;;5.53;2.53;;;11.70;99.90;;;;;;4996770;28;20177;-48
2023/09/23 01:07:56;;;;;;;3.07;2.30;;;11.60;99.90;;;;;;5012871;28;20574;-47
2023/09/23 01:10:23;;;;;;;3.30;2.33;;;11.50;99.90;;;;;;5014408;28;20288;-48
2023/09/23 01:12:49;;;;;;;3.77;2.43;;;11.50;99.90;;;;;;5013154;28;20213;-46
2023/09/23 01:15:18;;;;;;;4.03;2.20;;;11.40;99.90;;;;;;5014277;28;20216;-47
2023/09/23 01:17:47;;;;;;;2.70;1.97;;;11.40;99.90;;;;;;5014048;28;20235;-45
2023/09/23 01:20:16;;;;;;;4.17;2.23;;;11.30;99.90;;;;;;5012936;28;20212;-47
2023/09/23 01:22:43;;;;;;;2.20;1.80;;;11.20;99.90;;;;;;5013844;28;20255;-46
2023/09/23 01:25:09;;;;;;;6.47;1.83;;;11.20;99.90;;;;;;5013852;28;20268;-47
2023/09/23 01:27:35;;;;;;;6.27;2.00;;;11.10;99.90;;;;;;5013842;28;20272;-47
2023/09/23 01:30:04;;;;;;;3.57;1.50;;;11.10;99.90;;;;;;5013739;28;20281;-48
2023/09/23 01:32:47;;;;;;;5.50;1.60;;;11.10;99.90;;;;;;5012520;28;20549;-48
2023/09/23 01:35:17;;;;;;;4.10;1.60;;;11.00;99.90;;;;;;5013709;28;20173;-48
2023/09/23 01:37:48;;;;;;;3.10;1.50;;;11.00;99.90;;;;;;5013802;28;20231;-45
2023/09/23 01:40:17;;;;;;;6.07;1.33;;;11.00;99.90;;;;;;5012429;28;20203;-48
2023/09/23 01:42:45;;;;;;;4.50;1.83;;;10.90;99.90;;;;;;5013598;28;20211;-48
2023/09/23 01:45:12;;;;;;;5.27;1.37;;;10.90;99.90;;;;;;5013742;28;20173;-48
2023/09/23 01:47:41;;;;;;;5.50;1.20;;;10.90;99.90;;;;;;5013587;28;20541;-48
2023/09/23 01:50:10;;;;;;;5.30;1.10;;;10.90;99.90;;;;;;5013761;28;20225;-48
2023/09/23 01:52:37;;;;;;;2.30;1.30;;;10.90;99.90;;;;;;5012291;28;20209;-46
2023/09/23 01:55:05;;;;;;;5.17;1.27;;;10.90;99.90;;;;;;5013795;28;20184;-46
2023/09/23 01:57:33;;;;;;;2.93;1.10;;;10.90;99.90;;;;;;5014306;28;20232;-48
2023/09/23 02:00:04;;;;;;;2.87;1.00;;;10.90;99.90;;;;;;5013711;28;20204;-47
2023/09/23 02:02:30;;;;;;;1.63;0.80;;;10.90;99.90;;;;;;5013672;28;20209;-46
2023/09/23 02:04:57;;;;;;;4.13;1.10;;;10.90;99.90;;;;;;5016025;28;20578;-48
2023/09/23 02:07:23;;;;;;;3.77;1.30;;;10.90;99.90;;;;;;5016459;28;20174;-48
2023/09/23 02:09:49;;;;;;;4.33;1.00;;;10.90;99.90;;;;;;5017718;28;20673;-46
2023/09/23 02:12:14;;;;;;;4.33;1.10;;;10.90;99.90;;;;;;5017619;28;20200;-47
2023/09/23 02:14:40;;;;;;;2.90;0.97;;;10.90;99.90;;;;;;5017939;28;20224;-47
2023/09/23 02:17:06;;;;;;;3.20;0.93;;;10.90;99.90;;;;;;5017978;28;20182;-47
2023/09/23 02:19:32;;;;;;;3.20;1.10;;;10.90;99.90;;;;;;5016230;28;20565;-47
2023/09/23 02:22:05;;;;;;;2.90;1.40;;;10.90;99.90;;;;;;5016275;28;20212;-48
2023/09/23 02:24:32;;;;;;;5.77;1.17;;;10.90;99.90;;;;;;5016345;28;20185;-47
2023/09/23 02:26:58;;;;;;;3.67;1.30;;;10.80;99.90;;;;;;5000146;28;20181;-46
2023/09/23 02:29:24;;;;;;;4.30;1.03;;;10.80;99.90;;;;;;5017880;28;20565;-47
2023/09/23 02:31:50;;;;;;;4.67;1.20;;;10.80;99.90;;;;;;5018163;28;20189;-48
2023/09/23 02:34:18;;;;;;;11.50;1.20;;;10.80;99.90;;;;;;5018240;28;20185;-48
2023/09/23 02:36:50;;;;;;;3.53;1.10;;;10.80;99.90;;;;;;5018067;28;20256;-47
2023/09/23 02:39:20;;;;;;;3.33;1.00;;;10.90;99.90;;;;;;5018058;28;20200;-47
2023/09/23 02:41:50;;;;;;;3.07;1.20;;;10.80;99.90;;;;;;4999972;28;20212;-46
2023/09/23 02:44:24;;;;;;;3.73;1.03;;;10.80;99.90;;;;;;5017618;28;20182;-49
2023/09/23 02:46:52;;;;;;;3.07;0.90;;;10.90;99.90;;;;;;5017451;28;20533;-47
2023/09/23 02:49:19;;;;;;;1.50;0.70;;;10.80;99.90;;;;;;5016988;28;20236;-48
2023/09/23 02:51:48;;;;;;;0.70;0.70;;;10.80;99.90;;;;;;5016329;28;20621;-48
2023/09/23 02:54:17;;;;;;;5.33;1.03;;;10.80;99.90;;;;;;5017235;28;20280;-48
2023/09/23 02:56:50;;;;;;;1.37;0.90;;;10.80;99.90;;;;;;5015773;28;20264;-47
2023/09/23 02:59:21;;;;;;;2.03;0.90;;;10.80;99.90;;;;;;5016991;28;20256;-48
2023/09/23 03:01:52;;;;;;;3.93;1.37;;;10.80;99.90;;;;;;5015939;28;20669;-47
2023/09/23 03:04:23;;;;;;;3.17;1.30;;;10.80;99.90;;;;;;5015625;28;20180;-47
2023/09/23 03:06:53;;;;;;;4.57;1.73;;;10.80;99.90;;;;;;5017005;28;20162;-47
2023/09/23 03:09:24;;;;;;;3.07;1.27;;;10.80;99.90;;;;;;5015884;28;20224;-48
2023/09/23 03:11:55;;;;;;;3.40;1.10;;;10.80;99.90;;;;;;5015688;28;20173;-46
2023/09/23 03:14:40;;;;;;;2.57;0.80;;;10.80;99.90;;;;;;5016656;28;20177;-48
2023/09/23 03:17:07;;;;;;;2.17;0.77;;;10.80;99.90;;;;;;5016236;28;20166;-47
2023/09/23 03:19:34;;;;;;;2.97;1.10;;;10.80;99.90;;;;;;5016810;28;20287;-46
2023/09/23 03:22:00;;;;;;;4.53;1.30;;;10.80;99.90;;;;;;5016490;28;20264;-48
2023/09/23 03:24:29;;;;;;;3.67;1.00;;;10.80;99.90;;;;;;5016797;28;20204;-49
2023/09/23 03:27:00;;;;;;;4.60;1.20;;;10.80;99.90;;;;;;5015331;28;20191;-47
2023/09/23 03:29:31;;;;;;;1.87;0.93;;;10.70;99.90;;;;;;5017387;28;20190;-48
2023/09/23 03:32:00;;;;;;;4.33;0.90;;;10.80;99.90;;;;;;5017788;28;20659;-47
2023/09/23 03:34:29;;;;;;;2.50;0.80;;;10.80;99.90;;;;;;5019742;28;20185;-46
2023/09/23 03:36:56;;;;;;;3.77;1.10;;;10.90;99.90;;;;;;5018594;28;20186;-46
2023/09/23 03:39:22;;;;;;;3.43;1.00;;;10.90;99.90;;;;;;5016645;28;20205;-48
2023/09/23 03:41:48;;;;;;;2.73;0.97;;;10.90;99.90;;;;;;5015440;28;20208;-45
2023/09/23 03:44:15;;;;;;;3.43;1.10;;;11.00;99.90;;;;;;5016318;28;20180;-47
2023/09/23 03:46:45;;;;;;;3.13;1.07;;;10.90;99.90;;;;;;5016449;28;20187;-47
2023/09/23 03:49:11;;;;;;;2.50;0.83;;;11.00;99.90;;;;;;5017125;28;20200;-46
2023/09/23 03:51:42;;;;;;;2.40;1.00;;;10.90;99.90;;;;;;5016230;28;20200;-49
2023/09/23 03:54:09;;;;;;;3.50;0.90;;;10.90;99.90;;;;;;5016587;28;20577;-46
2023/09/23 03:56:35;;;;;;;2.87;1.27;;;11.00;99.90;;;;;;5016289;28;20547;-48
2023/09/23 03:59:05;;;;;;;3.77;1.10;;;10.90;99.90;;;;;;5016492;28;20668;-49
2023/09/23 04:01:47;;;;;;;6.57;1.57;;;10.90;99.90;;;;;;5014782;28;20266;-46
2023/09/23 04:04:13;;;;;;;3.00;1.03;;;10.90;99.90;;;;;;5015229;28;20172;-48
2023/09/23 04:06:40;;;;;;;4.33;1.10;;;10.90;99.90;;;;;;5015890;28;20184;-48
2023/09/23 04:09:09;;;;;;;3.17;1.30;;;10.90;99.90;;;;;;5015695;28;20299;-48
2023/09/23 04:11:36;;;;;;;5.07;1.20;;;10.80;99.90;;;;;;5015965;28;20181;-47
2023/09/23 04:14:02;;;;;;;2.53;1.30;;;10.90;99.90;;;;;;5015908;28;20673;-47
2023/09/23 04:16:27;;;;;;;2.40;1.10;;;10.80;99.90;;;;;;5014666;28;20308;-47
2023/09/23 04:18:54;;;;;;;4.77;1.33;;;10.90;99.90;;;;;;5016158;28;20546;-49
2023/09/23 04:21:22;;;;;;;3.43;1.10;;;10.80;99.90;;;;;;5015975;28;20205;-47
2023/09/23 04:23:49;;;;;;;2.63;1.00;;;10.80;99.90;;;;;;5015727;28;20188;-47
2023/09/23 04:26:15;;;;;;;4.57;1.40;;;10.80;99.90;;;;;;5015496;28;20662;-48
2023/09/23 04:28:41;;;;;;;3.67;1.60;;;10.80;99.90;;;;;;5013605;28;20211;-48
2023/09/23 04:31:08;;;;;;;4.03;1.50;;;10.80;99.90;;;;;;5014305;28;20263;-47
2023/09/23 04:33:34;;;;;;;4.63;1.60;;;10.80;99.90;;;;;;5014179;28;20185;-47
2023/09/23 04:36:01;;;;;;;2.77;1.43;;;10.70;99.90;;;;;;5014231;28;20648;-46
2023/09/23 04:38:27;;;;;;;4.30;1.30;;;10.80;99.90;;;;;;5015617;28;20169;-46
2023/09/23 04:40:55;;;;;;;5.80;1.50;;;10.80;99.90;;;;;;5015426;28;20197;-47
2023/09/23 04:43:21;;;;;;;4.97;1.57;;;10.80;99.90;;;;;;5015341;28;20216;-47
2023/09/23 04:45:48;;;;;;;2.33;1.40;;;10.80;99.90;;;;;;5015234;28;20178;-47
2023/09/23 04:48:16;;;;;;;4.20;1.83;;;10.70;99.90;;;;;;5015392;28;20574;-46
2023/09/23 04:50:46;;;;;;;3.43;1.67;;;10.70;99.90;;;;;;5014970;28;20770;-47
2023/09/23 04:53:12;;;;;;;4.90;1.30;;;10.70;99.90;;;;;;5013928;28;20181;-46
2023/09/23 04:55:38;;;;;;;6.40;1.50;;;10.70;99.90;;;;;;5013930;28;20185;-48
2023/09/23 04:58:06;;;;;;;2.83;1.80;;;10.70;99.90;;;;;;5014154;28;20280;-48
2023/09/23 05:00:32;;;;;;;4.20;1.47;;;10.70;99.90;;;;;;5014711;28;20694;-48
2023/09/23 05:02:59;;;;;;;3.23;1.90;;;10.70;99.90;;;;;;5014594;28;20267;-48
2023/09/23 05:05:26;;;;;;;1.30;1.10;;;10.70;99.90;;;;;;5014983;28;20191;-48
2023/09/23 05:07:53;;;;;;;5.13;1.30;;;10.60;99.90;;;;;;5013491;28;20196;-47
2023/09/23 05:10:19;;;;;;;3.33;1.50;;;10.60;99.90;;;;;;4981286;28;20212;-48
2023/09/23 05:12:46;;;;;;;2.93;1.40;;;10.60;99.90;;;;;;5013507;28;20275;-47
2023/09/23 05:15:14;;;;;;;3.83;1.20;;;10.60;99.90;;;;;;5013422;28;20534;-48
2023/09/23 05:17:43;;;;;;;4.00;1.30;;;10.60;99.90;;;;;;5014542;28;20323;-48
2023/09/23 05:20:25;;;;;;;4.53;1.27;;;10.60;99.90;;;;;;5014709;28;20204;-46
2023/09/23 05:22:55;;;;;;;5.43;1.43;;;10.60;99.90;;;;;;5014427;28;20719;-48
2023/09/23 05:25:25;;;;;;;2.53;1.20;;;10.60;99.90;;;;;;5014459;28;20538;-47
2023/09/23 05:27:54;;;;;;;13.80;1.73;;;10.60;99.90;;;;;;5013173;28;20199;-48
2023/09/23 05:30:21;;;;;;;3.60;1.40;;;10.50;99.90;;;;;;5014476;28;20193;-46
2023/09/23 05:32:54;;;;;;;6.13;1.23;;;10.50;99.90;;;;;;5013325;28;20559;-46
2023/09/23 05:35:21;;;;;;;4.87;1.30;;;10.50;99.90;;;;;;5014447;28;20173;-47
2023/09/23 05:37:48;;;;;;;1.43;0.80;;;10.50;99.90;;;;;;5014163;28;20196;-48
2023/09/23 05:40:23;;;;;;;4.10;1.20;;;10.50;99.90;;;;;;5012796;28;20742;-48
2023/09/23 05:42:59;;;;;;;4.03;1.10;;;10.50;99.90;;;;;;5012900;28;20211;-46
2023/09/23 05:45:26;;;;;;;4.00;1.60;;;10.60;99.90;;;;;;5014761;28;20537;-48
2023/09/23 05:47:52;;;;;;;3.70;1.50;;;10.60;99.90;;;;;;5013987;28;20710;-48
2023/09/23 05:50:20;;;;;;;8.77;1.67;;;10.60;99.90;;;;;;5014362;28;20727;-48
2023/09/23 05:52:47;;;;;;;2.43;1.20;;;10.60;99.90;;;;;;5014067;28;20571;-47
2023/09/23 05:55:15;;;;;;;2.80;1.20;;;10.60;99.90;;;;;;5014329;28;20532;-50
2023/09/23 05:57:42;;;;;;;3.93;1.40;;;10.60;99.90;;;;;;5014576;28;20189;-48
2023/09/23 06:00:12;;;;;;;3.97;1.40;;;10.60;99.90;;;;;;5014488;28;20205;-47
2023/09/23 06:02:38;;;;;;;4.10;1.43;;;10.60;99.90;;;;;;5013340;28;20680;-47
2023/09/23 06:05:04;;;;;;;3.63;1.40;;;10.60;99.90;;;;;;5013490;28;20176;-48
2023/09/23 06:07:33;;;;;;;4.63;1.77;;;10.70;99.90;;;;;;5014813;28;20177;-47
2023/09/23 06:10:00;;;;;;;5.50;1.37;;;10.70;99.90;;;;;;5014537;28;20243;-48
2023/09/23 06:12:30;;;;;;;5.37;1.53;;;10.70;99.90;;;;;;5014843;28;20189;-47
2023/09/23 06:15:00;;;;;;;3.70;1.27;;;10.80;99.90;;;;;;5015383;28;20663;-49
2023/09/23 06:17:28;;;;;;;4.67;1.30;;;10.80;99.90;;;;;;5013844;28;20181;-49
2023/09/23 06:19:57;;;;;;;4.33;1.20;;;10.80;99.90;;;;;;5013984;28;20364;-47
2023/09/23 06:22:26;;;;;;;10.07;1.90;;;10.80;99.90;;;;;;5014052;28;20696;-49
2023/09/23 06:24:55;;;;;;;1.77;1.00;;;10.90;99.90;;;;;;5014000;28;20187;-48
2023/09/23 06:27:23;;;;;;;5.33;1.77;;;10.90;99.90;;;;;;5012484;28;20684;-46
2023/09/23 06:29:49;;;;;;;4.53;1.20;;;10.90;99.90;;;;;;5014289;28;20224;-47
2023/09/23 06:32:16;;;;;;;5.27;1.50;;;10.90;99.90;;;;;;5013340;28;20215;-46
2023/09/23 06:34:44;;;;;;;5.33;1.90;;;11.00;99.90;;;;;;5012980;28;20189;-49
2023/09/23 06:37:10;;;;;;;6.73;1.40;;;11.00;99.90;;;;;;5014137;28;20181;-49
2023/09/23 06:39:36;;;;;;;2.97;1.47;;;11.00;99.90;;;;;;5013279;28;20205;-47
2023/09/23 06:42:02;;;;;;;4.83;2.00;;;11.10;99.90;;;;;;5014946;28;20565;-47
2023/09/23 06:44:29;;;;;;;5.33;1.60;;;11.10;99.90;;;;;;5014861;28;20180;-49
2023/09/23 06:46:55;;;;;;;5.07;1.30;;;11.20;99.90;;;;;;5014217;28;20188;-48
2023/09/23 06:49:25;;;;;;;4.03;1.50;;;11.20;99.90;;;;;;5014137;28;20208;-46
2023/09/23 06:51:51;;;;;;;2.33;1.20;;;11.30;99.90;;;;;;5015432;28;20264;-46
2023/09/23 06:54:18;;;;;;;2.40;1.00;;;11.40;99.90;;;;;;5015851;28;20191;-48
2023/09/23 06:56:44;;;;;;;3.83;1.30;;;11.50;99.90;;;;;;5017109;28;20664;-47
2023/09/23 06:59:11;;;;;;;4.73;1.50;;;11.50;99.90;;;;;;5015887;28;20291;-46
2023/09/23 07:01:37;;;;;;;4.70;1.63;;;11.60;99.90;;;;;;5016838;28;20411;-48
2023/09/23 07:04:04;;;;;;;2.33;1.17;;;11.60;99.90;;;;;;5017348;28;20185;-48
2023/09/23 07:06:30;;;;;;;4.40;1.70;;;11.70;99.90;;;;;;5016851;28;20184;-46
2023/09/23 07:08:56;;;;;;;5.10;1.60;;;11.80;99.90;;;;;;5016740;28;20217;-48
2023/09/23 07:11:24;;;;;;;5.37;1.73;;;11.90;99.90;;;;;;5017043;28;20711;-46
2023/09/23 07:13:49;;;;;;;6.13;1.37;;;12.00;99.90;;;;;;5016855;28;20275;-47
2023/09/23 07:16:15;;;;;;;5.30;1.40;;;12.10;99.90;;;;;;5015202;28;20610;-48
2023/09/23 07:18:43;;;;;;;4.53;1.40;;;12.20;99.90;;;;;;5016507;28;20716;-47
2023/09/23 07:21:09;;;;;;;8.17;1.57;;;12.20;99.90;;;;;;5016741;28;20271;-47
2023/09/23 07:23:35;;;;;;;4.73;1.63;;;12.30;99.90;;;;;;5016697;28;20772;-48
2023/09/23 07:26:02;;;;;;;2.07;1.30;;;12.40;99.90;;;;;;5016589;28;20204;-50
2023/09/23 07:28:28;;;;;;;3.20;1.27;;;12.50;99.90;;;;;;5016668;28;20178;-47
2023/09/23 07:30:54;;;;;;;4.63;1.40;;;12.50;99.90;;;;;;4998859;28;20276;-47
2023/09/23 07:33:20;;;;;;;5.97;1.43;;;12.60;99.90;;;;;;5016501;28;20180;-47
2023/09/23 07:35:46;;;;;;;2.90;1.40;;;12.70;99.90;;;;;;5016806;28;20527;-47
2023/09/23 07:38:13;;;;;;;5.60;1.43;;;12.70;99.90;;;;;;5016302;28;20177;-46
2023/09/23 07:40:40;;;;;;;5.40;1.60;;;12.80;99.90;;;;;;5015001;28;20685;-48
2023/09/23 07:43:07;;;;;;;8.27;1.73;;;12.90;99.90;;;;;;5016086;28;20256;-46
2023/09/23 07:45:33;;;;;;;5.30;1.90;;;13.00;99.90;;;;;;5015985;28;20187;-48
2023/09/23 07:47:59;;;;;;;4.83;1.90;;;13.10;99.90;;;;;;4998810;28;20260;-48
2023/09/23 07:50:25;;;;;;;4.77;1.50;;;13.10;99.90;;;;;;5015645;28;20225;-48
2023/09/23 07:52:51;;;;;;;5.47;1.80;;;13.20;99.90;;;;;;5015186;28;20190;-49
2023/09/23 07:55:17;;;;;;;3.60;1.53;;;13.20;99.90;;;;;;5014451;28;20189;-47
2023/09/23 07:57:43;;;;;;;4.43;1.97;;;13.20;99.90;;;;;;5015411;28;20183;-47
2023/09/23 08:00:14;;;;;;;2.37;1.40;;;13.20;99.90;;;;;;5015481;28;20255;-45
2023/09/23 08:02:40;;;;;;;3.73;1.67;;;13.20;99.90;;;;;;5015292;28;20203;-47
2023/09/23 08:05:06;;;;;;;6.67;2.10;;;13.20;99.90;;;;;;5015784;28;20201;-47
2023/09/23 08:07:32;;;;;;;3.10;1.73;;;13.20;99.90;;;;;;5015571;28;20182;-44
2023/09/23 08:09:58;;;;;;;4.27;1.73;;;13.30;99.90;;;;;;5015075;28;20543;-41
2023/09/23 08:12:24;;;;;;;2.27;1.40;;;13.40;99.90;;;;;;5015748;28;20244;-42
2023/09/23 08:14:51;;;;;;;3.70;1.70;;;13.50;99.90;;;;;;5015432;28;20182;-41
2023/09/23 08:17:17;;;;;;;4.37;1.53;;;13.60;99.90;;;;;;5014986;28;20212;-41
2023/09/23 08:19:44;;;;;;;3.93;1.53;;;13.70;99.90;;;;;;4997911;28;20609;-41
2023/09/23 08:22:10;;;;;;;6.40;1.93;;;13.80;99.90;;;;;;5013653;28;20213;-39
2023/09/23 08:24:37;;;;;;;4.80;1.60;;;13.90;99.90;;;;;;5015015;28;20174;-40
2023/09/23 08:27:03;;;;;;;4.27;1.93;;;14.00;99.90;;;;;;5013665;28;20181;-41
2023/09/23 08:29:29;;;;;;;6.13;2.27;;;14.10;99.90;;;;;;5015051;28;20255;-43
2023/09/23 08:31:55;;;;;;;7.73;1.70;;;14.10;99.90;;;;;;5013482;28;20268;-39
2023/09/23 08:34:21;;;;;;;4.33;1.87;;;14.30;99.90;;;;;;5014287;28;20284;-41
2023/09/23 08:36:46;;;;;;;2.83;1.80;;;14.30;99.90;;;;;;5013409;28;20213;-45
2023/09/23 08:39:12;;;;;;;7.07;1.90;;;14.40;99.90;;;;;;5014524;28;20646;-40
2023/09/23 08:41:39;;;;;;;5.43;2.37;;;14.40;99.90;;;;;;5014756;28;20685;-41
2023/09/23 08:44:05;;;;;;;3.47;1.73;;;14.40;99.90;;;;;;5015080;28;20181;-42
2023/09/23 08:46:31;;;;;;;6.13;1.97;;;14.50;99.90;;;;;;5014583;28;20178;-46
2023/09/23 08:49:01;;;;;;;6.40;1.73;;;14.60;99.90;;;;;;5014877;28;20185;-41
2023/09/23 08:51:27;;;;;;;5.60;1.90;;;14.70;99.90;;;;;;5013253;28;20197;-47
2023/09/23 08:53:54;;;;;;;2.93;1.67;;;14.80;99.90;;;;;;5014351;28;20186;-48
2023/09/23 08:56:21;;;;;;;4.37;1.80;;;14.80;99.90;;;;;;5014628;28;20185;-48
2023/09/23 08:58:48;;;;;;;5.13;1.93;;;14.90;99.90;;;;;;4996818;28;20185;-45
2023/09/23 09:01:15;;;;;;;4.83;1.30;;;14.90;99.90;;;;;;5014465;28;20166;-47
2023/09/23 09:03:41;;;;;;;4.90;2.13;;;15.00;99.90;;;;;;5014185;28;20201;-46
2023/09/23 09:06:19;;;;;;;6.43;1.97;;;15.00;99.90;;;;;;5014118;28;20641;-47
2023/09/23 09:08:45;;;;;;;4.73;1.90;;;14.90;99.90;;;;;;4996502;28;20588;-47
2023/09/23 09:11:12;;;;;;;3.30;1.60;;;14.90;99.90;;;;;;5012854;28;20185;-47
2023/09/23 09:13:38;;;;;;;4.83;1.70;;;15.00;99.90;;;;;;5013613;28;20645;-45
2023/09/23 09:16:07;;;;;;;5.93;1.70;;;15.10;99.90;;;;;;4996465;28;20665;-48
2023/09/23 09:18:33;;;;;;;7.43;1.80;;;15.20;99.90;;;;;;5013012;28;20173;-46
2023/09/23 09:20:59;;;;;;;4.90;1.47;;;15.20;99.90;;;;;;5014172;28;20560;-45
2023/09/23 09:23:32;;;;;;;5.97;2.20;;;15.20;99.90;;;;;;5014021;28;20233;-48
2023/09/23 09:25:58;;;;;;;4.70;1.77;;;15.10;99.90;;;;;;5012614;28;20559;-48
2023/09/23 09:28:24;;;;;;;5.37;2.10;;;15.00;99.90;;;;;;5013220;28;20259;-48
2023/09/23 09:30:56;;;;;;;3.87;1.50;;;15.00;99.90;;;;;;5012428;28;20280;-47
2023/09/23 09:33:25;;;;;;;4.83;1.20;;;15.00;99.90;;;;;;4996591;28;20244;-46
2023/09/23 09:35:56;;;;;;;2.80;1.30;;;15.00;99.90;;;;;;5013982;28;20213;-46
2023/09/23 09:38:25;;;;;;;2.20;1.00;;;15.00;99.90;;;;;;5012533;28;20626;-47
2023/09/23 09:40:59;;;;;;;1.83;0.90;;;15.10;99.90;;;;;;5013625;28;20212;-44
2023/09/23 09:43:25;;;;;;;4.13;1.57;;;15.20;99.70;;;;;;5013936;28;20186;-46
2023/09/23 09:45:53;;;;;;;4.73;1.23;;;15.20;99.90;;;;;;5013538;28;20178;-46
2023/09/23 09:48:20;;;;;;;7.07;1.10;;;15.30;99.90;;;;;;5013889;28;20189;-45
2023/09/23 09:50:47;;;;;;;4.20;1.17;;;15.40;99.90;;;;;;5012156;28;20557;-46
2023/09/23 09:53:13;;;;;;;1.47;1.30;;;15.50;99.90;;;;;;5013642;28;20691;-46
2023/09/23 09:55:40;;;;;;;1.80;0.87;;;15.50;98.10;;;;;;5012338;28;20264;-46
2023/09/23 09:58:06;;;;;;;3.53;1.10;;;15.70;99.20;;;;;;5013798;28;20650;-46
2023/09/23 10:00:42;;;;;;;5.20;1.20;;;15.80;95.20;;;;;;4996280;28;20208;-47
2023/09/23 10:03:11;;;;;;;2.90;1.30;;;15.80;95.10;;;;;;5015685;28;20197;-46
2023/09/23 10:05:46;;;;;;;1.30;0.90;;;16.00;93.40;;;;;;5016177;28;20178;-46
2023/09/23 10:08:31;;;;;;;4.57;1.17;;;16.00;88.50;;;;;;5013859;28;20185;-46
2023/09/23 10:11:03;;;;;;;2.90;1.10;;;16.10;86.00;;;;;;5013718;28;20197;-45
2023/09/23 10:13:31;;;;;;;2.80;0.80;;;16.00;83.00;;;;;;5013711;28;20272;-47
2023/09/23 10:16:06;;;;;;;3.67;1.10;;;16.10;90.10;;;;;;5013343;28;20673;-47
2023/09/23 10:18:37;;;;;;;3.13;1.30;;;16.00;93.00;;;;;;5013657;28;20251;-47
2023/09/23 10:21:04;;;;;;;3.80;0.87;;;16.00;94.80;;;;;;5012172;28;20236;-45
2023/09/23 10:23:36;;;;;;;2.67;0.90;;;15.90;84.50;;;;;;5013268;28;20288;-47
2023/09/23 10:26:20;;;;;;;6.40;1.10;;;16.00;71.80;;;;;;5014333;28;20162;-47
2023/09/23 10:28:57;;;;;;;2.47;1.00;;;16.00;84.60;;;;;;5015808;28;20247;-47
2023/09/23 10:31:33;;;;;;;2.83;1.10;;;16.10;96.10;;;;;;5016070;28;20177;-45
2023/09/23 10:34:06;;;;;;;2.00;0.77;;;16.10;92.10;;;;;;5017064;28;20157;-47
2023/09/23 10:36:32;;;;;;;2.43;0.90;;;16.10;94.70;;;;;;5017154;28;20186;-46
2023/09/23 10:38:59;;;;;;;2.23;1.20;;;16.10;96.10;;;;;;5017039;28;20178;-45
2023/09/23 10:41:33;;;;;;;4.90;1.30;;;16.10;98.40;;;;;;5015546;28;20197;-45
2023/09/23 10:43:58;;;;;;;2.00;1.30;;;16.20;99.90;;;;;;5015979;28;20483;-48
2023/09/23 10:46:24;;;;;;;2.60;0.83;;;16.30;98.00;;;;;;5017044;28;20178;-46
2023/09/23 10:48:50;;;;;;;4.30;1.30;;;16.40;91.60;;;;;;5016751;28;20178;-48
2023/09/23 10:51:16;;;;;;;2.60;1.30;;;16.50;92.60;;;;;;5016516;28;20280;-47
2023/09/23 10:53:42;;;;;;;4.07;1.10;;;16.50;98.10;;;;;;5016625;28;20207;-47
2023/09/23 10:56:10;;;;;;;3.20;1.20;;;16.70;91.40;;;;;;5016931;28;20200;-46
2023/09/23 10:58:37;;;;;;;4.40;1.87;;;16.80;91.40;;;;;;5015320;28;20183;-47
2023/09/23 11:01:05;;;;;;;1.37;0.77;;;16.90;79.80;;;;;;5016514;28;20197;-47
2023/09/23 11:03:37;;;;;;;3.37;1.10;;;16.90;77.20;;;;;;5016319;28;20284;-45
2023/09/23 11:06:04;;;;;;;2.97;1.10;;;17.00;66.90;;;;;;5015216;28;20173;-46
2023/09/23 11:08:31;;;;;;;3.70;0.90;;;17.10;65.00;;;;;;5016450;28;20665;-48
2023/09/23 11:10:57;;;;;;;4.47;1.80;;;17.10;85.20;;;;;;5016880;28;20233;-47
2023/09/23 11:13:25;;;;;;;2.07;1.07;;;17.20;70.30;;;;;;5016839;28;20203;-46
2023/09/23 11:15:52;;;;;;;5.33;1.30;;;17.40;58.30;;;;;;5016237;28;20181;-46
2023/09/23 11:18:18;;;;;;;2.10;0.93;;;17.40;73.60;;;;;;5016270;28;20302;-47
2023/09/23 11:20:47;;;;;;;3.50;1.37;;;17.40;70.10;;;;;;5016141;28;20232;-47
2023/09/23 11:23:13;;;;;;;5.13;1.43;;;17.30;70.00;;;;;;5016046;28;20204;-48
2023/09/23 11:25:42;;;;;;;3.60;1.57;;;17.20;60.80;;;;;;5014965;28;20181;-46
2023/09/23 11:28:28;;;;;;;3.93;1.40;;;17.20;76.00;;;;;;5015978;28;20185;-46
2023/09/23 11:30:55;;;;;;;1.53;1.23;;;17.30;80.50;;;;;;5016106;28;20712;-46
2023/09/23 11:33:21;;;;;;;1.80;1.10;;;17.30;83.20;;;;;;5016738;28;20185;-48
2023/09/23 11:35:47;;;;;;;4.73;1.30;;;17.20;88.30;;;;;;5018271;28;20189;-44
2023/09/23 11:38:14;;;;;;;5.50;1.30;;;17.20;89.10;;;;;;5018094;28;20178;-49
2023/09/23 11:40:40;;;;;;;2.80;1.50;;;17.20;86.80;;;;;;5018199;28;20237;-48
2023/09/23 11:43:06;;;;;;;2.67;1.27;;;17.20;87.60;;;;;;5017850;28;20205;-47
2023/09/23 11:45:33;;;;;;;3.33;1.50;;;17.30;99.40;;;;;;5016951;28;20650;-46
2023/09/23 11:47:59;;;;;;;6.07;1.60;;;17.40;87.90;;;;;;5016482;28;20704;-47
2023/09/23 11:50:26;;;;;;;1.97;0.90;;;17.40;78.10;;;;;;5015052;28;20201;-46
2023/09/23 11:52:52;;;;;;;3.60;1.20;;;17.50;63.10;;;;;;5017484;28;20685;-46
2023/09/23 11:55:18;;;;;;;3.67;1.43;;;17.60;82.40;;;;;;5016085;28;20209;-46
2023/09/23 11:57:44;;;;;;;3.73;1.40;;;17.60;67.70;;;;;;5015851;28;20177;-47
2023/09/23 12:00:11;;;;;;;4.30;1.40;;;17.60;71.30;;;;;;5015268;28;20201;-46
2023/09/23 12:02:40;;;;;;;3.83;1.47;;;17.70;69.00;;;;;;5015197;28;20205;-48
2023/09/23 12:05:13;;;;;;;2.73;1.27;;;17.70;50.80;;;;;;5015555;28;20583;-47
2023/09/23 12:07:38;;;;;;;3.77;1.50;;;17.90;65.00;;;;;;5013959;28;20173;-46
2023/09/23 12:10:05;;;;;;;2.83;1.20;;;18.00;71.40;;;;;;5013812;28;20208;-47
2023/09/23 12:12:31;;;;;;;2.83;1.27;;;18.10;85.60;;;;;;4997669;28;20239;-48
2023/09/23 12:14:57;;;;;;;4.50;1.20;;;18.20;65.50;;;;;;5014628;28;20185;-47
2023/09/23 12:17:23;;;;;;;4.63;1.20;;;18.20;60.10;;;;;;5014920;28;20177;-47
2023/09/23 12:19:49;;;;;;;4.30;1.67;;;18.10;62.80;;;;;;4997463;28;20280;-47
2023/09/23 12:22:20;;;;;;;3.10;1.20;;;18.10;69.60;;;;;;5015581;28;20297;-49
2023/09/23 12:24:46;;;;;;;6.60;1.30;;;18.20;63.90;;;;;;5013706;28;20640;-46
2023/09/23 12:27:12;;;;;;;2.40;1.27;;;18.30;64.30;;;;;;5013952;28;20259;-47
2023/09/23 12:29:38;;;;;;;4.53;1.67;;;18.30;54.00;;;;;;5013494;28;20197;-47
2023/09/23 12:32:05;;;;;;;4.40;1.37;;;18.30;52.00;;;;;;5014772;28;20525;-48
2023/09/23 12:34:32;;;;;;;3.17;1.20;;;18.30;72.30;;;;;;5013457;28;20217;-46
2023/09/23 12:36:58;;;;;;;2.80;0.80;;;18.40;70.80;;;;;;5014726;28;20261;-47
2023/09/23 12:39:24;;;;;;;5.03;1.00;;;18.40;68.40;;;;;;5014843;28;20202;-47
2023/09/23 12:41:51;;;;;;;4.13;1.00;;;18.30;56.80;;;;;;5014565;28;20206;-46
2023/09/23 12:44:20;;;;;;;2.40;1.10;;;18.40;78.20;;;;;;5014839;28;20174;-48
2023/09/23 12:46:46;;;;;;;2.77;0.93;;;18.30;67.00;;;;;;5013289;28;20545;-47
2023/09/23 12:49:13;;;;;;;3.57;1.03;;;18.40;67.30;;;;;;5012433;28;20226;-47